W. A. Kernan — WDD4377 — position and weather

sailwx.info

Track history (hours):
 
Tides and Currents Weather Stations Pressure Air Temp Water Temp Dewpoint Dewpoint Depression Visibility Wind Speed Wind Dir Waves Ship Positions

W. A. Kernan

Owner: American Commercial Lines LLC, Jeffersonville, IN. More information available from US FCC via Universal Licensing System and Coast Guard Vessel Documentation Center.

Last reported at 2015-Jul-26 18:28 UTC. Time now 2015-Aug-01 20:15 UTC.
Position N 38°56' W 084°52'.

Length 45 m; draft 2.9 m.

MMSI: 367143920.

Date/timePositionNaut miles runAvg speedWind from/ knotsBaromVisibWave heightAir tempDewpointWater temp
2015-Jul-26 18:28N 38°56' W 084°52'11 5.8
2015-Jul-26 16:31N 39°07' W 084°48'5 5.4
2015-Jul-26 15:32N 39°06' W 084°41'6 5.8
2015-Jul-26 14:33N 39°05' W 084°34'6 5.7
2015-Jul-26 13:33N 39°07' W 084°27'7 6.6
2015-Jul-26 12:33N 39°02' W 084°21'7 7.3
2015-Jul-26 11:33N 38°56' W 084°16'7 7.2
2015-Jul-26 10:33N 38°49' W 084°14'3 3.1
2015-Jul-26 09:33N 38°48' W 084°10'5 4.9
2015-Jul-26 08:32N 38°46' W 084°04'6 6.3
2015-Jul-26 07:33N 38°47' W 083°56'7 5.9
2015-Jul-26 06:21N 38°42' W 083°49'7 5.8
2015-Jul-26 05:09N 38°38' W 083°42'10 5.3
2015-Jul-26 03:12N 38°42' W 083°30'  
2015-Jul-17 11:33N 38°41' W 083°47'4 3.9
2015-Jul-17 10:32N 38°44' W 083°51'4 4.3
2015-Jul-17 09:33N 38°46' W 083°55'4 4.2
2015-Jul-17 08:32N 38°47' W 084°01'5 4.6
2015-Jul-17 07:32N 38°47' W 084°07'3 2.8
2015-Jul-17 06:25N 38°48' W 084°10'2 2.7
2015-Jul-17 05:33N 38°49' W 084°13'4 4.5
2015-Jul-17 04:33N 38°53' W 084°14'5 4.8
2015-Jul-17 03:33N 38°57' W 084°17'5 4.7
2015-Jul-17 02:33N 39°01' W 084°20'5 4.5
2015-Jul-17 01:32N 39°03' W 084°25'4 4.1
2015-Jul-17 00:34N 39°07' W 084°27'3 3.1
2015-Jul-16 23:33N 39°06' W 084°31'3 2.6
2015-Jul-16 22:33N 39°05' W 084°34'4 3.6
2015-Jul-16 21:33N 39°05' W 084°39'3 2.8
2015-Jul-16 20:33N 39°06' W 084°42'4 3.6
2015-Jul-16 19:31N 39°08' W 084°46'  
Track history (hours):
 
Tides and Currents Weather Stations Pressure Air Temp Water Temp Dewpoint Dewpoint Depression Visibility Wind Speed Wind Dir Waves Ship Positions

W. A. Kernan

Owner: American Commercial Lines LLC, Jeffersonville, IN. More information available from US FCC via Universal Licensing System and Coast Guard Vessel Documentation Center.

Last reported at 2015-Jul-26 18:28 UTC. Time now 2015-Aug-01 20:15 UTC.
Position N 38°56' W 084°52'.

Length 45 m; draft 2.9 m.

MMSI: 367143920.

Date/timePositionNaut miles runAvg speedWind from/ knotsBaromVisibWave heightAir tempDewpointWater temp
2015-Jul-26 18:28N 38°56' W 084°52'11 5.8
2015-Jul-26 16:31N 39°07' W 084°48'5 5.4
2015-Jul-26 15:32N 39°06' W 084°41'6 5.8
2015-Jul-26 14:33N 39°05' W 084°34'6 5.7
2015-Jul-26 13:33N 39°07' W 084°27'7 6.6
2015-Jul-26 12:33N 39°02' W 084°21'7 7.3
2015-Jul-26 11:33N 38°56' W 084°16'7 7.2
2015-Jul-26 10:33N 38°49' W 084°14'3 3.1
2015-Jul-26 09:33N 38°48' W 084°10'5 4.9
2015-Jul-26 08:32N 38°46' W 084°04'6 6.3
2015-Jul-26 07:33N 38°47' W 083°56'7 5.9
2015-Jul-26 06:21N 38°42' W 083°49'7 5.8
2015-Jul-26 05:09N 38°38' W 083°42'10 5.3
2015-Jul-26 03:12N 38°42' W 083°30'  
2015-Jul-17 11:33N 38°41' W 083°47'4 3.9
2015-Jul-17 10:32N 38°44' W 083°51'4 4.3
2015-Jul-17 09:33N 38°46' W 083°55'4 4.2
2015-Jul-17 08:32N 38°47' W 084°01'5 4.6
2015-Jul-17 07:32N 38°47' W 084°07'3 2.8
2015-Jul-17 06:25N 38°48' W 084°10'2 2.7
2015-Jul-17 05:33N 38°49' W 084°13'4 4.5
2015-Jul-17 04:33N 38°53' W 084°14'5 4.8
2015-Jul-17 03:33N 38°57' W 084°17'5 4.7
2015-Jul-17 02:33N 39°01' W 084°20'5 4.5
2015-Jul-17 01:32N 39°03' W 084°25'4 4.1
2015-Jul-17 00:34N 39°07' W 084°27'3 3.1
2015-Jul-16 23:33N 39°06' W 084°31'3 2.6
2015-Jul-16 22:33N 39°05' W 084°34'4 3.6
2015-Jul-16 21:33N 39°05' W 084°39'3 2.8
2015-Jul-16 20:33N 39°06' W 084°42'4 3.6
2015-Jul-16 19:31N 39°08' W 084°46'  

Dump ship's entire track history